createdAt,value
2022-10-04T00:01:53.313Z,9.82
2022-10-04T00:04:25.167Z,9.48
2022-10-04T00:07:06.909Z,9.48
2022-10-04T00:10:04.693Z,8.77
2022-10-04T00:12:35.641Z,9.25
2022-10-04T00:15:07.449Z,9.90
2022-10-04T00:17:37.475Z,9.85
2022-10-04T00:20:55.773Z,9.52
2022-10-04T00:23:25.469Z,8.90
2022-10-04T00:26:00.727Z,10.48
2022-10-04T00:28:36.684Z,10.32
2022-10-04T00:31:18.522Z,9.82
2022-10-04T00:36:23.936Z,9.88
2022-10-04T00:39:08.918Z,10.15
2022-10-04T00:41:48.027Z,10.77
2022-10-04T00:44:37.322Z,10.13
2022-10-04T00:47:22.306Z,9.95
2022-10-04T00:49:55.929Z,10.07
2022-10-04T00:52:29.124Z,9.73
2022-10-04T00:55:05.201Z,9.77
2022-10-04T00:57:46.831Z,10.15
2022-10-04T01:00:19.167Z,10.00
2022-10-04T01:03:01.781Z,9.32
2022-10-04T01:05:39.253Z,9.05
2022-10-04T01:08:22.419Z,9.80
2022-10-04T01:11:02.532Z,9.95
2022-10-04T01:13:37.033Z,10.60
2022-10-04T01:16:28.275Z,10.02
2022-10-04T01:18:56.103Z,9.90
2022-10-04T01:21:29.361Z,9.27
2022-10-04T01:23:58.988Z,9.00
2022-10-04T01:26:34.531Z,8.43
2022-10-04T01:29:09.964Z,8.93
2022-10-04T01:31:40.469Z,9.20
2022-10-04T01:34:08.367Z,8.57
2022-10-04T01:36:36.889Z,8.48
2022-10-04T01:39:04.299Z,8.98
2022-10-04T01:41:44.877Z,9.38
2022-10-04T01:44:20.746Z,9.18
2022-10-04T01:46:49.562Z,9.48
2022-10-04T01:49:19.807Z,9.05
2022-10-04T01:52:17.644Z,9.10
2022-10-04T01:54:48.912Z,8.07
2022-10-04T01:57:19.163Z,8.65
2022-10-04T02:00:21.554Z,8.55
2022-10-04T02:03:00.886Z,8.68
2022-10-04T02:05:30.540Z,8.40
2022-10-04T02:08:03.968Z,9.30
2022-10-04T02:10:33.571Z,8.35
2022-10-04T02:13:00.860Z,9.02
2022-10-04T02:15:28.064Z,8.82
2022-10-04T02:17:57.009Z,8.10
2022-10-04T02:20:26.773Z,8.30
2022-10-04T02:22:59.307Z,8.32
2022-10-04T02:25:26.749Z,8.98
2022-10-04T02:27:55.873Z,7.90
2022-10-04T02:30:23.995Z,8.90
2022-10-04T02:33:00.562Z,8.35
2022-10-04T02:35:35.681Z,8.07
2022-10-04T02:38:12.646Z,8.98
2022-10-04T02:40:59.872Z,7.90
2022-10-04T02:43:36.488Z,7.70
2022-10-04T02:46:18.247Z,8.68
2022-10-04T02:51:25.831Z,7.80
2022-10-04T02:54:27.855Z,8.10
2022-10-04T02:56:56.464Z,7.55
2022-10-04T02:59:23.685Z,7.40
2022-10-04T03:02:01.715Z,7.50
2022-10-04T03:04:32.143Z,6.95
2022-10-04T03:07:02.556Z,6.63
2022-10-04T03:09:30.282Z,7.55
2022-10-04T03:11:57.450Z,6.80
2022-10-04T03:14:27.565Z,7.95
2022-10-04T03:16:57.385Z,7.40
2022-10-04T03:19:26.814Z,7.30
2022-10-04T03:21:57.877Z,7.25
2022-10-04T03:24:34.140Z,8.10
2022-10-04T03:27:05.650Z,7.22
2022-10-04T03:29:34.043Z,7.57
2022-10-04T03:32:03.771Z,7.78
2022-10-04T03:34:43.927Z,7.13
2022-10-04T03:37:16.425Z,7.40
2022-10-04T03:39:49.153Z,7.18
2022-10-04T03:42:20.309Z,7.35
2022-10-04T03:44:48.569Z,6.85
2022-10-04T03:47:22.004Z,7.15
2022-10-04T03:49:51.090Z,7.57
2022-10-04T03:52:25.509Z,6.43
2022-10-04T03:54:55.067Z,7.13
2022-10-04T03:57:22.692Z,7.38
2022-10-04T03:59:50.543Z,6.93
2022-10-04T04:02:35.925Z,7.60
2022-10-04T04:05:15.101Z,7.23
2022-10-04T04:07:46.443Z,7.50
2022-10-04T04:10:27.425Z,7.75
2022-10-04T04:12:59.036Z,7.67
2022-10-04T04:15:31.291Z,7.57
2022-10-04T04:18:03.548Z,7.47
2022-10-04T04:20:42.456Z,8.30
2022-10-04T04:23:15.148Z,7.05
2022-10-04T04:25:45.871Z,8.40
2022-10-04T04:28:39.135Z,7.88
2022-10-04T04:31:20.765Z,8.00
2022-10-04T04:34:00.262Z,8.38
2022-10-04T04:36:38.534Z,7.38
2022-10-04T04:39:37.480Z,7.00
2022-10-04T04:42:21.145Z,7.68
2022-10-04T04:44:55.593Z,7.25
2022-10-04T04:47:44.052Z,7.20
2022-10-04T04:50:24.373Z,7.18
2022-10-04T04:53:05.019Z,7.85
2022-10-04T04:56:02.690Z,7.15
2022-10-04T04:58:36.983Z,7.22
2022-10-04T05:01:07.965Z,7.95
2022-10-04T05:03:35.117Z,7.15
2022-10-04T05:06:04.670Z,7.03
2022-10-04T05:08:38.753Z,7.75
2022-10-04T05:11:08.396Z,8.23
2022-10-04T05:13:50.249Z,8.90
2022-10-04T05:18:59.860Z,6.43
2022-10-04T05:21:29.665Z,7.38
2022-10-04T05:23:58.467Z,8.20
2022-10-04T05:26:29.223Z,8.02
2022-10-04T05:29:01.620Z,7.47
2022-10-04T05:31:45.590Z,8.00
2022-10-04T05:34:23.716Z,8.45
2022-10-04T05:37:07.385Z,8.57
2022-10-04T05:40:15.839Z,9.45
2022-10-04T05:42:45.271Z,11.60
2022-10-04T05:45:17.825Z,9.43
2022-10-04T05:47:47.793Z,11.43
2022-10-04T05:50:40.488Z,9.70
2022-10-04T05:53:25.693Z,9.70
2022-10-04T05:56:01.587Z,10.00
2022-10-04T05:58:37.642Z,9.77
2022-10-04T06:01:24.104Z,11.48
2022-10-04T06:04:21.769Z,9.40
2022-10-04T06:07:00.873Z,9.75
2022-10-04T06:09:48.124Z,10.55
2022-10-04T06:12:35.733Z,10.32
2022-10-04T06:15:33.039Z,10.10
2022-10-04T06:18:18.465Z,10.05
2022-10-04T06:21:00.949Z,10.27
2022-10-04T06:23:31.816Z,10.88
2022-10-04T06:26:13.860Z,11.63
2022-10-04T06:28:52.408Z,10.48
2022-10-04T06:32:00.488Z,11.23
2022-10-04T06:35:04.809Z,10.93
2022-10-04T06:38:02.573Z,11.30
2022-10-04T06:40:29.123Z,12.00
2022-10-04T06:43:17.014Z,10.80
2022-10-04T06:46:26.711Z,10.70
2022-10-04T06:49:10.487Z,10.60
2022-10-04T06:52:06.325Z,12.13
2022-10-04T06:55:00.278Z,11.15
2022-10-04T06:57:50.041Z,10.30
2022-10-04T07:00:21.794Z,9.85
2022-10-04T07:05:57.643Z,8.95
2022-10-04T07:08:40.476Z,9.18
2022-10-04T07:11:28.158Z,10.38
2022-10-04T07:14:11.185Z,8.45
2022-10-04T07:16:50.903Z,8.10
2022-10-04T07:19:20.547Z,8.13
2022-10-04T07:21:53.058Z,8.70
2022-10-04T07:24:27.005Z,11.00
2022-10-04T07:26:55.737Z,9.05
2022-10-04T07:29:28.283Z,8.35
2022-10-04T07:32:07.029Z,7.68
2022-10-04T07:34:40.101Z,8.68
2022-10-04T07:37:13.098Z,9.27
2022-10-04T07:40:01.464Z,8.52
2022-10-04T07:42:32.811Z,7.53
2022-10-04T07:45:34.365Z,8.57
2022-10-04T07:48:23.864Z,7.82
2022-10-04T07:51:25.248Z,7.53
2022-10-04T07:54:10.667Z,7.73
2022-10-04T07:56:55.077Z,7.40
2022-10-04T08:00:12.175Z,6.82
2022-10-04T08:02:55.003Z,6.65
2022-10-04T09:54:56.721Z,3.88
2022-10-04T09:57:39.969Z,4.40
2022-10-04T10:00:09.226Z,4.45
2022-10-04T10:03:02.489Z,4.15
2022-10-04T10:06:07.180Z,4.20
2022-10-04T10:08:57.780Z,4.22
2022-10-04T10:11:53.397Z,3.88
2022-10-04T10:14:26.937Z,4.00
2022-10-04T10:17:00.903Z,3.95
2022-10-04T10:19:47.801Z,3.35
2022-10-04T10:22:33.696Z,3.75
2022-10-04T10:25:27.258Z,3.67
2022-10-04T10:28:30.416Z,4.45
2022-10-04T10:31:05.785Z,4.03
2022-10-04T10:33:47.332Z,4.30
2022-10-04T10:36:42.330Z,4.07
2022-10-04T10:39:21.413Z,3.80
2022-10-04T10:42:12.940Z,3.47
2022-10-04T10:44:51.787Z,4.43
2022-10-04T10:47:30.943Z,3.80
2022-10-04T10:50:27.364Z,3.47
2022-10-04T10:53:29.125Z,4.40
2022-10-04T10:56:29.379Z,3.50
2022-10-04T10:59:21.128Z,3.37
2022-10-04T11:02:12.550Z,3.80
2022-10-04T11:04:57.734Z,3.25
2022-10-04T11:07:43.476Z,3.65
2022-10-04T11:10:35.240Z,3.15
2022-10-04T11:13:26.467Z,3.58
2022-10-04T11:16:01.167Z,3.30
2022-10-04T11:18:56.857Z,3.70
2022-10-04T11:22:07.437Z,3.72
2022-10-04T11:24:44.938Z,3.60
2022-10-04T11:27:14.526Z,4.15
2022-10-04T11:30:03.903Z,3.50
2022-10-04T11:33:04.553Z,3.85
2022-10-04T11:35:36.748Z,3.15
2022-10-04T11:38:19.808Z,3.40
2022-10-04T11:41:12.897Z,3.40
2022-10-04T11:44:16.862Z,3.08
2022-10-04T11:47:03.223Z,2.70
2022-10-04T11:49:56.461Z,2.75
2022-10-04T11:52:49.954Z,2.85
2022-10-04T11:56:04.023Z,2.83
2022-10-04T11:59:03.846Z,2.60
2022-10-04T12:01:49.650Z,2.30
2022-10-04T12:04:44.138Z,2.55
2022-10-04T12:07:49.910Z,2.65
2022-10-04T12:10:25.414Z,2.50
2022-10-04T12:13:25.859Z,3.08
2022-10-04T12:16:30.309Z,2.40
2022-10-04T12:19:29.135Z,3.30
2022-10-04T12:22:23.893Z,3.20
2022-10-04T12:25:09.175Z,3.92
2022-10-04T12:27:52.369Z,2.53
2022-10-04T12:30:36.238Z,3.50
2022-10-04T12:33:31.655Z,2.45
2022-10-04T12:36:48.241Z,2.28
2022-10-04T12:39:38.081Z,2.00
2022-10-04T12:42:32.512Z,2.20
2022-10-04T12:45:25.154Z,2.35
2022-10-04T12:48:22.953Z,2.10
2022-10-04T12:51:13.406Z,2.85
2022-10-04T12:53:58.876Z,2.47
2022-10-04T12:56:40.523Z,2.50
2022-10-04T12:59:22.325Z,2.63
2022-10-04T13:01:57.226Z,3.22
2022-10-04T13:04:39.123Z,3.00
2022-10-04T13:07:51.220Z,2.92
2022-10-04T13:13:15.946Z,2.97
2022-10-04T13:19:21.962Z,3.25
2022-10-04T13:22:13.642Z,2.50
2022-10-04T13:24:55.399Z,2.88
2022-10-04T13:27:38.303Z,2.80
2022-10-04T13:30:06.836Z,2.55
2022-10-04T13:32:47.435Z,2.75
2022-10-04T13:35:46.381Z,2.60
2022-10-04T13:38:24.012Z,2.58
2022-10-04T13:41:04.408Z,2.33
2022-10-04T13:43:52.508Z,2.83
2022-10-04T13:46:56.728Z,2.72
2022-10-04T13:49:29.478Z,2.20
2022-10-04T13:52:20.550Z,2.60
2022-10-04T13:55:20.162Z,2.60
2022-10-04T13:58:08.645Z,2.88
2022-10-04T14:01:22.113Z,2.35
2022-10-04T14:04:26.491Z,2.63
2022-10-04T14:07:34.401Z,2.33
2022-10-04T14:10:23.833Z,2.60
2022-10-04T14:13:11.018Z,2.47
2022-10-04T14:16:18.376Z,3.00
2022-10-04T14:18:59.794Z,3.03
2022-10-04T14:21:48.446Z,2.85
2022-10-04T14:24:40.483Z,2.25
2022-10-04T14:30:00.776Z,3.25
2022-10-04T14:32:43.037Z,2.42
2022-10-04T14:35:36.680Z,2.58
2022-10-04T14:38:15.757Z,3.08
2022-10-04T14:41:04.588Z,2.70
2022-10-04T14:43:56.364Z,3.60
2022-10-04T14:49:24.567Z,3.53
2022-10-04T14:52:06.560Z,3.45
2022-10-04T14:54:50.628Z,3.03
2022-10-04T14:57:42.361Z,2.83
2022-10-04T15:00:16.768Z,3.20
2022-10-04T15:03:17.283Z,2.63
2022-10-04T15:06:24.462Z,2.60
2022-10-04T15:09:13.092Z,3.00
2022-10-04T15:12:21.525Z,2.85
2022-10-04T15:15:03.379Z,2.92
2022-10-04T15:17:39.265Z,2.58
2022-10-04T15:20:22.158Z,3.20
2022-10-04T15:23:18.310Z,4.30
2022-10-04T15:25:57.100Z,3.03
2022-10-04T15:28:49.599Z,3.83
2022-10-04T15:31:21.850Z,3.00
2022-10-04T15:34:06.725Z,2.72
2022-10-04T15:37:01.787Z,2.97
2022-10-04T15:40:03.445Z,3.15
2022-10-04T15:42:34.780Z,2.78
2022-10-04T15:45:17.124Z,2.88
2022-10-04T15:48:23.625Z,3.20
2022-10-04T15:51:13.741Z,2.88
2022-10-04T15:53:53.802Z,2.95
2022-10-04T15:56:27.100Z,2.72
2022-10-04T15:58:59.436Z,3.28
2022-10-04T16:01:45.776Z,3.40
2022-10-04T16:04:37.444Z,3.80
2022-10-04T16:07:07.058Z,3.30
2022-10-04T16:09:54.404Z,3.40
2022-10-04T16:12:52.742Z,4.35
2022-10-04T16:15:35.633Z,2.95
2022-10-04T16:18:41.777Z,4.10
2022-10-04T16:21:46.197Z,3.17
2022-10-04T16:24:21.406Z,3.97
2022-10-04T16:26:50.965Z,3.95
2022-10-04T16:29:31.458Z,3.20
2022-10-04T16:32:04.928Z,3.60
2022-10-04T16:34:45.440Z,3.60
2022-10-04T16:37:24.048Z,3.95
2022-10-04T16:40:55.950Z,3.92
2022-10-04T16:43:29.823Z,4.57
2022-10-04T16:46:15.183Z,3.60
2022-10-04T16:48:58.885Z,3.90
2022-10-04T16:52:06.609Z,4.07
2022-10-04T16:55:03.253Z,4.18
2022-10-04T16:57:30.300Z,4.45
2022-10-04T17:00:06.072Z,4.50
2022-10-04T17:02:32.730Z,4.80
2022-10-04T17:05:05.149Z,4.65
2022-10-04T17:07:54.854Z,4.90
2022-10-04T17:10:31.108Z,4.40
2022-10-04T17:13:14.599Z,4.22
2022-10-04T17:16:14.624Z,4.05
2022-10-04T17:18:51.967Z,4.22
2022-10-04T17:21:21.410Z,4.28
2022-10-04T17:24:06.531Z,3.80
2022-10-04T17:27:05.725Z,3.75
2022-10-04T17:30:15.294Z,3.38
2022-10-04T17:33:21.754Z,3.72
2022-10-04T17:36:07.375Z,3.83
2022-10-04T17:38:40.992Z,4.00
2022-10-04T17:41:23.235Z,4.03
2022-10-04T17:43:55.978Z,3.65
2022-10-04T17:46:31.147Z,4.05
2022-10-04T17:49:22.809Z,4.85
2022-10-04T17:52:12.480Z,4.15
2022-10-04T17:55:10.598Z,3.80
2022-10-04T17:58:00.219Z,3.78
2022-10-04T18:00:46.480Z,3.90
2022-10-04T18:03:52.374Z,3.78
2022-10-04T18:06:31.532Z,4.03
2022-10-04T18:09:24.901Z,4.55
2022-10-04T18:11:59.573Z,4.55
2022-10-04T18:14:29.015Z,5.22
2022-10-04T18:17:03.898Z,4.93
2022-10-04T18:19:42.684Z,4.97
2022-10-04T18:22:19.816Z,4.65
2022-10-04T18:24:48.967Z,4.85
2022-10-04T18:27:18.638Z,5.95
2022-10-04T18:30:14.277Z,5.95
2022-10-04T18:32:57.194Z,6.15
2022-10-04T18:35:32.525Z,6.15
2022-10-04T18:38:05.198Z,6.80
2022-10-04T18:40:42.752Z,6.95
2022-10-04T18:43:33.076Z,7.22
2022-10-04T18:46:21.010Z,7.45
2022-10-04T18:49:01.604Z,8.27
2022-10-04T18:51:39.820Z,7.80
2022-10-04T18:54:32.192Z,7.75
2022-10-04T18:57:31.292Z,8.75
2022-10-04T19:00:30.296Z,8.52
2022-10-04T19:03:18.222Z,8.48
2022-10-04T19:05:52.490Z,8.85
2022-10-04T19:08:41.226Z,8.23
2022-10-04T19:11:33.070Z,9.30
2022-10-04T19:14:14.436Z,7.78
2022-10-04T19:16:58.701Z,8.30
2022-10-04T19:19:53.815Z,7.88
2022-10-04T19:22:32.559Z,6.85
2022-10-04T19:25:31.179Z,7.78
2022-10-04T19:28:02.729Z,7.13
2022-10-04T19:30:53.002Z,7.93
2022-10-04T19:33:41.956Z,7.57
2022-10-04T19:36:23.348Z,6.93
2022-10-04T19:39:09.019Z,6.70
2022-10-04T19:42:04.447Z,7.70
2022-10-04T19:45:08.595Z,8.00
2022-10-04T19:47:48.897Z,7.82
2022-10-04T19:50:34.503Z,7.53
2022-10-04T19:53:13.101Z,7.72
2022-10-04T19:55:57.457Z,8.15
2022-10-04T19:58:39.708Z,7.80
2022-10-04T20:01:16.460Z,7.22
2022-10-04T20:03:43.987Z,7.13
2022-10-04T20:06:19.715Z,8.70
2022-10-04T20:09:17.239Z,7.57
2022-10-04T20:11:43.964Z,7.50
2022-10-04T20:14:16.824Z,8.20
2022-10-04T20:16:46.860Z,7.63
2022-10-04T20:19:29.228Z,8.13
2022-10-04T20:22:18.479Z,8.90
2022-10-04T20:24:45.135Z,8.23
2022-10-04T20:27:28.234Z,7.65
2022-10-04T20:29:56.968Z,8.40
2022-10-04T20:32:26.751Z,7.60
2022-10-04T20:34:55.626Z,8.13
2022-10-04T20:37:45.087Z,8.00
2022-10-04T20:40:34.385Z,7.65
2022-10-04T20:43:13.325Z,7.80
2022-10-04T20:45:48.219Z,7.93
2022-10-04T20:48:31.281Z,7.55
2022-10-04T20:51:08.762Z,7.63
2022-10-04T20:53:35.746Z,7.20
2022-10-04T20:56:26.544Z,8.00
2022-10-04T20:58:59.577Z,7.85
2022-10-04T21:01:37.436Z,7.95
2022-10-04T21:04:19.361Z,7.85
2022-10-04T21:06:57.555Z,7.43
2022-10-04T21:09:25.539Z,7.10
2022-10-04T21:11:54.045Z,7.72
2022-10-04T21:14:24.250Z,8.50
2022-10-04T21:16:58.701Z,8.57
2022-10-04T21:19:44.456Z,9.05
2022-10-04T21:22:32.067Z,7.40
2022-10-04T21:25:29.048Z,7.60
2022-10-04T21:28:32.087Z,6.97
2022-10-04T21:31:00.180Z,7.40
2022-10-04T21:33:26.804Z,6.97
2022-10-04T21:35:53.422Z,6.80
2022-10-04T21:38:20.062Z,7.55
2022-10-04T21:40:46.674Z,8.25
2022-10-04T21:43:13.303Z,7.80
2022-10-04T21:45:40.009Z,7.35
2022-10-04T21:48:06.698Z,7.15
2022-10-04T21:50:33.367Z,6.20
2022-10-04T21:53:00.091Z,6.95
2022-10-04T21:55:26.803Z,6.22
2022-10-04T21:57:53.476Z,7.03
2022-10-04T22:00:21.094Z,6.78
2022-10-04T22:02:47.783Z,7.65
2022-10-04T22:05:14.525Z,7.75
2022-10-04T22:07:41.211Z,6.93
2022-10-04T22:10:08.252Z,7.90
2022-10-04T22:12:34.872Z,8.02
2022-10-04T22:15:01.771Z,7.40
2022-10-04T22:17:28.410Z,7.82
2022-10-04T22:19:55.054Z,7.13
2022-10-04T22:22:21.788Z,7.90
2022-10-04T22:24:48.395Z,7.50
2022-10-04T22:27:17.231Z,7.75
2022-10-04T22:29:44.079Z,7.00
2022-10-04T22:32:17.660Z,7.22
2022-10-04T22:34:44.443Z,8.90
2022-10-04T22:37:12.152Z,7.72
2022-10-04T22:39:39.366Z,8.85
2022-10-04T22:42:06.332Z,7.88
2022-10-04T22:44:37.778Z,8.05
2022-10-04T22:47:10.489Z,8.00
2022-10-04T22:49:40.101Z,9.00
2022-10-04T22:52:16.589Z,8.02
2022-10-04T22:54:46.438Z,7.63
2022-10-04T22:57:16.013Z,8.20
2022-10-04T22:59:48.360Z,7.30
2022-10-04T23:02:26.753Z,8.40
2022-10-04T23:05:21.106Z,8.00
2022-10-04T23:07:48.729Z,8.07
2022-10-04T23:10:18.506Z,7.43
2022-10-04T23:12:46.856Z,7.35
2022-10-04T23:15:19.604Z,7.65
2022-10-04T23:17:54.197Z,7.55
2022-10-04T23:20:21.253Z,7.10
2022-10-04T23:22:50.455Z,7.28
2022-10-04T23:25:21.643Z,7.75
2022-10-04T23:27:48.615Z,7.55
2022-10-04T23:30:21.090Z,7.82
2022-10-04T23:32:50.098Z,7.60
2022-10-04T23:35:23.526Z,7.50
2022-10-04T23:37:51.249Z,7.82
2022-10-04T23:40:23.278Z,9.55
2022-10-04T23:42:53.593Z,7.50
2022-10-04T23:45:22.893Z,6.60
2022-10-04T23:47:58.796Z,7.00
2022-10-04T23:50:43.636Z,6.80
2022-10-04T23:53:22.813Z,6.75
2022-10-04T23:55:49.502Z,6.85
2022-10-04T23:58:17.852Z,6.63
